sensor_id;sensor_type;location;lat;lon;timestamp;P1;durP1;ratioP1;P2;durP2;ratioP2
16393;SDS011;8306;51.128;4.476;2023-03-01T00:01:07;5.83;;;5.43;;
16393;SDS011;8306;51.128;4.476;2023-03-01T00:03:33;6.20;;;5.70;;
16393;SDS011;8306;51.128;4.476;2023-03-01T00:05:59;6.83;;;5.63;;
16393;SDS011;8306;51.128;4.476;2023-03-01T00:08:26;5.67;;;5.17;;
16393;SDS011;8306;51.128;4.476;2023-03-01T00:13:28;6.30;;;5.80;;
16393;SDS011;8306;51.128;4.476;2023-03-01T00:15:54;7.33;;;5.97;;
16393;SDS011;8306;51.128;4.476;2023-03-01T00:18:21;6.10;;;5.60;;
16393;SDS011;8306;51.128;4.476;2023-03-01T00:20:51;6.60;;;6.10;;
16393;SDS011;8306;51.128;4.476;2023-03-01T00:23:17;6.10;;;5.60;;
16393;SDS011;8306;51.128;4.476;2023-03-01T00:25:43;6.23;;;5.70;;
16393;SDS011;8306;51.128;4.476;2023-03-01T00:28:10;7.83;;;6.03;;
16393;SDS011;8306;51.128;4.476;2023-03-01T00:30:36;6.50;;;6.00;;
16393;SDS011;8306;51.128;4.476;2023-03-01T00:33:03;6.43;;;5.83;;
16393;SDS011;8306;51.128;4.476;2023-03-01T00:35:29;5.97;;;5.57;;
16393;SDS011;8306;51.128;4.476;2023-03-01T00:37:56;7.13;;;6.53;;
16393;SDS011;8306;51.128;4.476;2023-03-01T00:40:22;6.80;;;6.10;;
16393;SDS011;8306;51.128;4.476;2023-03-01T00:42:49;7.73;;;5.97;;
16393;SDS011;8306;51.128;4.476;2023-03-01T00:45:15;6.80;;;6.30;;
16393;SDS011;8306;51.128;4.476;2023-03-01T00:47:41;6.30;;;5.80;;
16393;SDS011;8306;51.128;4.476;2023-03-01T00:50:08;7.43;;;6.20;;
16393;SDS011;8306;51.128;4.476;2023-03-01T00:52:35;7.50;;;6.90;;
16393;SDS011;8306;51.128;4.476;2023-03-01T00:55:01;6.77;;;6.27;;
16393;SDS011;8306;51.128;4.476;2023-03-01T00:57:28;7.10;;;6.40;;
16393;SDS011;8306;51.128;4.476;2023-03-01T00:59:54;7.97;;;6.07;;
16393;SDS011;8306;51.128;4.476;2023-03-01T01:02:23;6.60;;;6.07;;
16393;SDS011;8306;51.128;4.476;2023-03-01T01:04:49;7.07;;;6.47;;
16393;SDS011;8306;51.128;4.476;2023-03-01T01:07:16;6.90;;;6.30;;
16393;SDS011;8306;51.128;4.476;2023-03-01T01:09:42;6.70;;;6.10;;
16393;SDS011;8306;51.128;4.476;2023-03-01T01:12:09;6.97;;;6.47;;
16393;SDS011;8306;51.128;4.476;2023-03-01T01:14:35;7.23;;;6.73;;
16393;SDS011;8306;51.128;4.476;2023-03-01T01:17:02;7.53;;;6.73;;
16393;SDS011;8306;51.128;4.476;2023-03-01T01:19:28;7.47;;;6.87;;
16393;SDS011;8306;51.128;4.476;2023-03-01T01:21:55;7.03;;;6.43;;
16393;SDS011;8306;51.128;4.476;2023-03-01T01:24:21;6.83;;;6.03;;
16393;SDS011;8306;51.128;4.476;2023-03-01T01:26:48;6.43;;;5.93;;
16393;SDS011;8306;51.128;4.476;2023-03-01T01:29:14;6.03;;;5.63;;
16393;SDS011;8306;51.128;4.476;2023-03-01T01:31:41;6.80;;;6.30;;
16393;SDS011;8306;51.128;4.476;2023-03-01T01:34:08;7.17;;;6.60;;
16393;SDS011;8306;51.128;4.476;2023-03-01T01:36:34;6.30;;;5.73;;
16393;SDS011;8306;51.128;4.476;2023-03-01T01:39:00;6.83;;;6.23;;
16393;SDS011;8306;51.128;4.476;2023-03-01T01:41:27;6.97;;;6.17;;
16393;SDS011;8306;51.128;4.476;2023-03-01T01:44:13;6.47;;;5.97;;
16393;SDS011;8306;51.128;4.476;2023-03-01T01:47:27;6.70;;;5.90;;
16393;SDS011;8306;51.128;4.476;2023-03-01T01:49:12;6.53;;;6.00;;
16393;SDS011;8306;51.128;4.476;2023-03-01T01:51:37;7.23;;;6.63;;
16393;SDS011;8306;51.128;4.476;2023-03-01T01:54:09;6.90;;;6.40;;
16393;SDS011;8306;51.128;4.476;2023-03-01T01:56:35;7.20;;;6.60;;
16393;SDS011;8306;51.128;4.476;2023-03-01T01:59:01;6.67;;;6.07;;
16393;SDS011;8306;51.128;4.476;2023-03-01T02:01:28;7.43;;;6.73;;
16393;SDS011;8306;51.128;4.476;2023-03-01T02:03:54;7.93;;;7.23;;
16393;SDS011;8306;51.128;4.476;2023-03-01T02:08:50;7.80;;;7.10;;
16393;SDS011;8306;51.128;4.476;2023-03-01T02:11:16;7.70;;;7.10;;
16393;SDS011;8306;51.128;4.476;2023-03-01T02:13:43;7.13;;;6.63;;
16393;SDS011;8306;51.128;4.476;2023-03-01T02:16:10;8.10;;;7.30;;
16393;SDS011;8306;51.128;4.476;2023-03-01T02:18:39;7.70;;;7.10;;
16393;SDS011;8306;51.128;4.476;2023-03-01T02:21:14;7.07;;;6.57;;
16393;SDS011;8306;51.128;4.476;2023-03-01T02:23:55;7.60;;;6.90;;
16393;SDS011;8306;51.128;4.476;2023-03-01T02:29:00;7.70;;;7.10;;
16393;SDS011;8306;51.128;4.476;2023-03-01T02:31:27;7.90;;;7.23;;
16393;SDS011;8306;51.128;4.476;2023-03-01T02:34:10;7.13;;;6.53;;
16393;SDS011;8306;51.128;4.476;2023-03-01T02:36:39;7.13;;;6.53;;
16393;SDS011;8306;51.128;4.476;2023-03-01T02:39:05;6.70;;;6.10;;
16393;SDS011;8306;51.128;4.476;2023-03-01T02:41:32;8.63;;;6.73;;
16393;SDS011;8306;51.128;4.476;2023-03-01T02:43:57;7.27;;;6.50;;
16393;SDS011;8306;51.128;4.476;2023-03-01T02:46:25;7.57;;;6.97;;
16393;SDS011;8306;51.128;4.476;2023-03-01T02:48:54;10.20;;;6.60;;
16393;SDS011;8306;51.128;4.476;2023-03-01T02:54:05;6.70;;;6.20;;
16393;SDS011;8306;51.128;4.476;2023-03-01T02:56:41;7.33;;;6.27;;
16393;SDS011;8306;51.128;4.476;2023-03-01T02:59:07;6.73;;;6.13;;
16393;SDS011;8306;51.128;4.476;2023-03-01T03:01:33;7.10;;;6.50;;
16393;SDS011;8306;51.128;4.476;2023-03-01T03:04:06;7.70;;;6.40;;
16393;SDS011;8306;51.128;4.476;2023-03-01T03:06:32;7.17;;;6.67;;
16393;SDS011;8306;51.128;4.476;2023-03-01T03:08:59;6.97;;;6.37;;
16393;SDS011;8306;51.128;4.476;2023-03-01T03:11:25;6.53;;;6.03;;
16393;SDS011;8306;51.128;4.476;2023-03-01T03:13:52;7.27;;;6.67;;
16393;SDS011;8306;51.128;4.476;2023-03-01T03:16:18;7.03;;;6.53;;
16393;SDS011;8306;51.128;4.476;2023-03-01T03:18:45;7.70;;;7.10;;
16393;SDS011;8306;51.128;4.476;2023-03-01T03:21:11;7.43;;;6.70;;
16393;SDS011;8306;51.128;4.476;2023-03-01T03:23:38;7.43;;;6.47;;
16393;SDS011;8306;51.128;4.476;2023-03-01T03:26:04;9.27;;;6.67;;
16393;SDS011;8306;51.128;4.476;2023-03-01T03:28:31;7.03;;;6.53;;
16393;SDS011;8306;51.128;4.476;2023-03-01T03:30:57;6.87;;;6.30;;
16393;SDS011;8306;51.128;4.476;2023-03-01T03:33:23;6.70;;;6.20;;
16393;SDS011;8306;51.128;4.476;2023-03-01T03:35:50;7.30;;;6.60;;
16393;SDS011;8306;51.128;4.476;2023-03-01T03:38:17;6.63;;;6.07;;
16393;SDS011;8306;51.128;4.476;2023-03-01T03:40:45;5.87;;;5.40;;
16393;SDS011;8306;51.128;4.476;2023-03-01T03:43:13;7.20;;;6.60;;
16393;SDS011;8306;51.128;4.476;2023-03-01T03:45:39;7.20;;;6.50;;
16393;SDS011;8306;51.128;4.476;2023-03-01T03:48:06;6.93;;;6.23;;
16393;SDS011;8306;51.128;4.476;2023-03-01T03:50:32;7.33;;;6.60;;
16393;SDS011;8306;51.128;4.476;2023-03-01T03:53:00;6.63;;;6.13;;
16393;SDS011;8306;51.128;4.476;2023-03-01T03:55:27;6.80;;;6.20;;
16393;SDS011;8306;51.128;4.476;2023-03-01T03:57:57;6.90;;;6.30;;
16393;SDS011;8306;51.128;4.476;2023-03-01T04:00:23;6.57;;;5.97;;
16393;SDS011;8306;51.128;4.476;2023-03-01T04:02:49;6.20;;;5.70;;
16393;SDS011;8306;51.128;4.476;2023-03-01T04:05:16;6.67;;;6.13;;
16393;SDS011;8306;51.128;4.476;2023-03-01T04:07:42;6.87;;;6.27;;
16393;SDS011;8306;51.128;4.476;2023-03-01T04:10:13;7.00;;;6.30;;
16393;SDS011;8306;51.128;4.476;2023-03-01T04:12:35;6.67;;;6.17;;
16393;SDS011;8306;51.128;4.476;2023-03-01T04:15:02;6.33;;;5.87;;
16393;SDS011;8306;51.128;4.476;2023-03-01T04:17:28;6.83;;;6.33;;
16393;SDS011;8306;51.128;4.476;2023-03-01T04:19:55;6.83;;;6.23;;
16393;SDS011;8306;51.128;4.476;2023-03-01T04:22:21;6.17;;;5.57;;
16393;SDS011;8306;51.128;4.476;2023-03-01T04:24:48;6.13;;;5.73;;
16393;SDS011;8306;51.128;4.476;2023-03-01T04:27:14;6.80;;;6.20;;
16393;SDS011;8306;51.128;4.476;2023-03-01T04:29:41;6.67;;;6.17;;
16393;SDS011;8306;51.128;4.476;2023-03-01T04:32:07;7.30;;;6.57;;
16393;SDS011;8306;51.128;4.476;2023-03-01T04:34:33;6.50;;;5.87;;
16393;SDS011;8306;51.128;4.476;2023-03-01T04:37:00;6.30;;;5.80;;
16393;SDS011;8306;51.128;4.476;2023-03-01T04:39:26;6.57;;;6.07;;
16393;SDS011;8306;51.128;4.476;2023-03-01T04:41:53;7.07;;;6.37;;
16393;SDS011;8306;51.128;4.476;2023-03-01T04:44:19;7.03;;;6.17;;
16393;SDS011;8306;51.128;4.476;2023-03-01T04:46:48;6.83;;;6.23;;
16393;SDS011;8306;51.128;4.476;2023-03-01T04:49:12;6.80;;;6.30;;
16393;SDS011;8306;51.128;4.476;2023-03-01T04:51:39;7.77;;;6.63;;
16393;SDS011;8306;51.128;4.476;2023-03-01T04:54:05;7.20;;;6.63;;
16393;SDS011;8306;51.128;4.476;2023-03-01T04:56:32;6.83;;;6.23;;
16393;SDS011;8306;51.128;4.476;2023-03-01T04:58:58;6.67;;;6.17;;
16393;SDS011;8306;51.128;4.476;2023-03-01T05:01:25;7.00;;;6.40;;
16393;SDS011;8306;51.128;4.476;2023-03-01T05:03:51;7.37;;;6.80;;
16393;SDS011;8306;51.128;4.476;2023-03-01T05:06:18;7.90;;;6.90;;
16393;SDS011;8306;51.128;4.476;2023-03-01T05:08:44;6.83;;;6.33;;
16393;SDS011;8306;51.128;4.476;2023-03-01T05:11:11;7.17;;;6.47;;
16393;SDS011;8306;51.128;4.476;2023-03-01T05:13:38;7.07;;;6.47;;
16393;SDS011;8306;51.128;4.476;2023-03-01T05:16:04;7.27;;;6.57;;
16393;SDS011;8306;51.128;4.476;2023-03-01T05:18:31;6.50;;;6.00;;
16393;SDS011;8306;51.128;4.476;2023-03-01T05:21:04;6.37;;;5.87;;
16393;SDS011;8306;51.128;4.476;2023-03-01T05:23:30;7.43;;;6.70;;
16393;SDS011;8306;51.128;4.476;2023-03-01T05:25:59;7.57;;;6.97;;
16393;SDS011;8306;51.128;4.476;2023-03-01T05:28:25;10.63;;;7.63;;
16393;SDS011;8306;51.128;4.476;2023-03-01T05:30:51;7.67;;;7.00;;
16393;SDS011;8306;51.128;4.476;2023-03-01T05:33:18;7.47;;;6.73;;
16393;SDS011;8306;51.128;4.476;2023-03-01T05:35:45;7.50;;;7.00;;
16393;SDS011;8306;51.128;4.476;2023-03-01T05:38:11;7.30;;;6.70;;
16393;SDS011;8306;51.128;4.476;2023-03-01T05:40:41;7.27;;;6.67;;
16393;SDS011;8306;51.128;4.476;2023-03-01T05:43:07;7.77;;;7.17;;
16393;SDS011;8306;51.128;4.476;2023-03-01T05:45:35;7.60;;;7.00;;
16393;SDS011;8306;51.128;4.476;2023-03-01T05:48:00;7.07;;;6.37;;
16393;SDS011;8306;51.128;4.476;2023-03-01T05:50:28;7.03;;;6.43;;
16393;SDS011;8306;51.128;4.476;2023-03-01T05:52:57;6.67;;;6.07;;
16393;SDS011;8306;51.128;4.476;2023-03-01T05:55:29;7.23;;;6.63;;
16393;SDS011;8306;51.128;4.476;2023-03-01T05:57:55;7.33;;;6.73;;
16393;SDS011;8306;51.128;4.476;2023-03-01T06:00:21;7.77;;;6.97;;
16393;SDS011;8306;51.128;4.476;2023-03-01T06:02:48;7.53;;;6.93;;
16393;SDS011;8306;51.128;4.476;2023-03-01T06:05:14;7.43;;;6.83;;
16393;SDS011;8306;51.128;4.476;2023-03-01T06:07:41;7.77;;;6.97;;
16393;SDS011;8306;51.128;4.476;2023-03-01T06:10:08;7.17;;;6.57;;
16393;SDS011;8306;51.128;4.476;2023-03-01T06:12:35;6.87;;;6.30;;
16393;SDS011;8306;51.128;4.476;2023-03-01T06:15:01;7.90;;;7.23;;
16393;SDS011;8306;51.128;4.476;2023-03-01T06:17:31;7.00;;;6.33;;
16393;SDS011;8306;51.128;4.476;2023-03-01T06:19:57;7.43;;;6.83;;
16393;SDS011;8306;51.128;4.476;2023-03-01T06:22:23;7.93;;;7.23;;
16393;SDS011;8306;51.128;4.476;2023-03-01T06:24:49;8.00;;;7.40;;
16393;SDS011;8306;51.128;4.476;2023-03-01T06:27:16;7.50;;;6.83;;
16393;SDS011;8306;51.128;4.476;2023-03-01T06:29:42;8.47;;;7.67;;
16393;SDS011;8306;51.128;4.476;2023-03-01T06:32:09;9.40;;;7.57;;
16393;SDS011;8306;51.128;4.476;2023-03-01T06:34:35;9.00;;;8.23;;
16393;SDS011;8306;51.128;4.476;2023-03-01T06:37:02;8.07;;;7.37;;
16393;SDS011;8306;51.128;4.476;2023-03-01T06:39:28;8.17;;;7.47;;
16393;SDS011;8306;51.128;4.476;2023-03-01T06:41:55;7.63;;;6.93;;
16393;SDS011;8306;51.128;4.476;2023-03-01T06:44:21;8.57;;;7.77;;
16393;SDS011;8306;51.128;4.476;2023-03-01T06:46:48;8.07;;;7.27;;
16393;SDS011;8306;51.128;4.476;2023-03-01T06:49:14;7.47;;;6.93;;
16393;SDS011;8306;51.128;4.476;2023-03-01T06:51:41;7.73;;;7.03;;
16393;SDS011;8306;51.128;4.476;2023-03-01T06:54:07;8.27;;;7.47;;
16393;SDS011;8306;51.128;4.476;2023-03-01T06:56:34;7.43;;;6.77;;
16393;SDS011;8306;51.128;4.476;2023-03-01T06:59:00;8.03;;;7.30;;
16393;SDS011;8306;51.128;4.476;2023-03-01T07:01:27;8.57;;;7.77;;
16393;SDS011;8306;51.128;4.476;2023-03-01T07:03:53;8.53;;;7.77;;
16393;SDS011;8306;51.128;4.476;2023-03-01T07:06:20;9.10;;;8.30;;
16393;SDS011;8306;51.128;4.476;2023-03-01T07:08:46;8.80;;;8.03;;
16393;SDS011;8306;51.128;4.476;2023-03-01T07:11:13;8.23;;;7.47;;
16393;SDS011;8306;51.128;4.476;2023-03-01T07:13:39;9.90;;;7.40;;
16393;SDS011;8306;51.128;4.476;2023-03-01T07:16:05;6.83;;;6.13;;
16393;SDS011;8306;51.128;4.476;2023-03-01T07:18:32;6.40;;;5.80;;
16393;SDS011;8306;51.128;4.476;2023-03-01T07:21:03;6.80;;;6.10;;
16393;SDS011;8306;51.128;4.476;2023-03-01T07:23:25;6.97;;;6.07;;
16393;SDS011;8306;51.128;4.476;2023-03-01T07:25:52;6.27;;;5.70;;
16393;SDS011;8306;51.128;4.476;2023-03-01T07:28:18;5.90;;;5.50;;
16393;SDS011;8306;51.128;4.476;2023-03-01T07:30:44;5.77;;;5.37;;
16393;SDS011;8306;51.128;4.476;2023-03-01T07:33:11;6.10;;;5.50;;
16393;SDS011;8306;51.128;4.476;2023-03-01T07:35:37;5.83;;;5.33;;
16393;SDS011;8306;51.128;4.476;2023-03-01T07:38:04;5.50;;;5.10;;
16393;SDS011;8306;51.128;4.476;2023-03-01T07:40:30;6.17;;;5.67;;
16393;SDS011;8306;51.128;4.476;2023-03-01T07:42:57;5.87;;;5.00;;
16393;SDS011;8306;51.128;4.476;2023-03-01T07:45:24;5.80;;;5.37;;
16393;SDS011;8306;51.128;4.476;2023-03-01T07:47:50;6.73;;;5.83;;
16393;SDS011;8306;51.128;4.476;2023-03-01T07:50:16;7.20;;;5.77;;
16393;SDS011;8306;51.128;4.476;2023-03-01T07:52:44;5.63;;;5.23;;
16393;SDS011;8306;51.128;4.476;2023-03-01T07:55:09;6.20;;;5.80;;
16393;SDS011;8306;51.128;4.476;2023-03-01T07:57:36;6.83;;;5.47;;
16393;SDS011;8306;51.128;4.476;2023-03-01T08:00:02;6.30;;;5.70;;
16393;SDS011;8306;51.128;4.476;2023-03-01T08:02:29;6.30;;;5.70;;
16393;SDS011;8306;51.128;4.476;2023-03-01T08:04:55;7.07;;;6.47;;
16393;SDS011;8306;51.128;4.476;2023-03-01T08:07:21;5.80;;;5.40;;
16393;SDS011;8306;51.128;4.476;2023-03-01T08:09:48;6.63;;;6.13;;
16393;SDS011;8306;51.128;4.476;2023-03-01T08:12:14;6.17;;;5.73;;
16393;SDS011;8306;51.128;4.476;2023-03-01T08:14:41;6.60;;;6.00;;
16393;SDS011;8306;51.128;4.476;2023-03-01T08:17:07;6.90;;;6.30;;
16393;SDS011;8306;51.128;4.476;2023-03-01T08:19:34;6.77;;;6.20;;
16393;SDS011;8306;51.128;4.476;2023-03-01T08:22:03;6.43;;;6.03;;
16393;SDS011;8306;51.128;4.476;2023-03-01T08:24:29;7.37;;;6.53;;
16393;SDS011;8306;51.128;4.476;2023-03-01T08:26:56;5.93;;;5.47;;
16393;SDS011;8306;51.128;4.476;2023-03-01T08:29:22;6.33;;;5.83;;
16393;SDS011;8306;51.128;4.476;2023-03-01T08:31:49;7.13;;;6.63;;
16393;SDS011;8306;51.128;4.476;2023-03-01T08:34:16;7.00;;;6.30;;
16393;SDS011;8306;51.128;4.476;2023-03-01T08:36:43;6.60;;;6.00;;
16393;SDS011;8306;51.128;4.476;2023-03-01T08:39:09;6.53;;;6.03;;
16393;SDS011;8306;51.128;4.476;2023-03-01T08:41:35;7.20;;;6.63;;
16393;SDS011;8306;51.128;4.476;2023-03-01T08:44:02;7.10;;;6.50;;
16393;SDS011;8306;51.128;4.476;2023-03-01T08:46:31;7.30;;;6.60;;
16393;SDS011;8306;51.128;4.476;2023-03-01T08:48:55;6.60;;;6.00;;
16393;SDS011;8306;51.128;4.476;2023-03-01T08:51:22;6.73;;;6.23;;
16393;SDS011;8306;51.128;4.476;2023-03-01T08:53:48;7.00;;;6.40;;
16393;SDS011;8306;51.128;4.476;2023-03-01T08:56:14;7.03;;;6.53;;
16393;SDS011;8306;51.128;4.476;2023-03-01T08:58:43;7.07;;;6.47;;
16393;SDS011;8306;51.128;4.476;2023-03-01T09:01:10;6.33;;;5.87;;
16393;SDS011;8306;51.128;4.476;2023-03-01T09:03:36;6.63;;;6.03;;
16393;SDS011;8306;51.128;4.476;2023-03-01T09:06:03;6.20;;;5.80;;
16393;SDS011;8306;51.128;4.476;2023-03-01T09:08:30;6.20;;;5.60;;
16393;SDS011;8306;51.128;4.476;2023-03-01T09:10:56;5.50;;;5.10;;
16393;SDS011;8306;51.128;4.476;2023-03-01T09:13:22;6.20;;;5.70;;
16393;SDS011;8306;51.128;4.476;2023-03-01T09:15:51;6.57;;;6.07;;
16393;SDS011;8306;51.128;4.476;2023-03-01T09:18:18;6.23;;;5.83;;
16393;SDS011;8306;51.128;4.476;2023-03-01T09:20:44;6.07;;;5.67;;
16393;SDS011;8306;51.128;4.476;2023-03-01T09:23:11;5.53;;;5.13;;
16393;SDS011;8306;51.128;4.476;2023-03-01T09:25:37;7.50;;;6.80;;
16393;SDS011;8306;51.128;4.476;2023-03-01T09:28:04;6.70;;;6.20;;
16393;SDS011;8306;51.128;4.476;2023-03-01T09:30:30;6.30;;;5.83;;
16393;SDS011;8306;51.128;4.476;2023-03-01T09:32:57;6.53;;;6.03;;
16393;SDS011;8306;51.128;4.476;2023-03-01T09:35:23;6.87;;;6.37;;
16393;SDS011;8306;51.128;4.476;2023-03-01T09:37:50;6.80;;;6.20;;
16393;SDS011;8306;51.128;4.476;2023-03-01T09:40:17;6.43;;;5.90;;
16393;SDS011;8306;51.128;4.476;2023-03-01T09:42:46;6.60;;;6.10;;
16393;SDS011;8306;51.128;4.476;2023-03-01T09:45:15;7.00;;;6.40;;
16393;SDS011;8306;51.128;4.476;2023-03-01T09:47:38;7.30;;;6.40;;
16393;SDS011;8306;51.128;4.476;2023-03-01T09:50:12;6.03;;;5.53;;
16393;SDS011;8306;51.128;4.476;2023-03-01T09:52:41;6.23;;;5.37;;
16393;SDS011;8306;51.128;4.476;2023-03-01T09:55:13;6.07;;;5.57;;
16393;SDS011;8306;51.128;4.476;2023-03-01T10:00:26;6.30;;;5.80;;
16393;SDS011;8306;51.128;4.476;2023-03-01T10:02:57;5.97;;;5.50;;
16393;SDS011;8306;51.128;4.476;2023-03-01T10:08:33;6.20;;;5.70;;
16393;SDS011;8306;51.128;4.476;2023-03-01T10:11:00;5.87;;;5.37;;
16393;SDS011;8306;51.128;4.476;2023-03-01T10:13:33;5.87;;;5.47;;
16393;SDS011;8306;51.128;4.476;2023-03-01T10:16:15;6.13;;;5.63;;
16393;SDS011;8306;51.128;4.476;2023-03-01T10:18:43;6.27;;;5.80;;
16393;SDS011;8306;51.128;4.476;2023-03-01T10:23:36;5.70;;;5.30;;
16393;SDS011;8306;51.128;4.476;2023-03-01T10:34:20;5.90;;;5.50;;
16393;SDS011;8306;51.128;4.476;2023-03-01T10:36:43;5.97;;;5.47;;
16393;SDS011;8306;51.128;4.476;2023-03-01T10:39:18;6.37;;;5.83;;
16393;SDS011;8306;51.128;4.476;2023-03-01T10:44:47;5.87;;;5.37;;
16393;SDS011;8306;51.128;4.476;2023-03-01T10:47:23;5.30;;;4.93;;
16393;SDS011;8306;51.128;4.476;2023-03-01T10:49:39;5.50;;;5.10;;
16393;SDS011;8306;51.128;4.476;2023-03-01T10:52:40;6.07;;;5.60;;
16393;SDS011;8306;51.128;4.476;2023-03-01T10:54:50;5.90;;;5.40;;
16393;SDS011;8306;51.128;4.476;2023-03-01T10:57:11;5.23;;;4.83;;
16393;SDS011;8306;51.128;4.476;2023-03-01T10:59:38;5.93;;;5.40;;
16393;SDS011;8306;51.128;4.476;2023-03-01T11:02:24;6.47;;;5.87;;
16393;SDS011;8306;51.128;4.476;2023-03-01T11:05:01;4.93;;;4.63;;
16393;SDS011;8306;51.128;4.476;2023-03-01T11:07:26;5.37;;;4.97;;
16393;SDS011;8306;51.128;4.476;2023-03-01T11:09:53;5.77;;;5.37;;
16393;SDS011;8306;51.128;4.476;2023-03-01T11:12:19;5.57;;;5.17;;
16393;SDS011;8306;51.128;4.476;2023-03-01T11:14:47;5.13;;;4.83;;
16393;SDS011;8306;51.128;4.476;2023-03-01T11:17:14;6.03;;;5.60;;
16393;SDS011;8306;51.128;4.476;2023-03-01T11:19:39;5.60;;;5.30;;
16393;SDS011;8306;51.128;4.476;2023-03-01T11:22:07;5.80;;;5.30;;
16393;SDS011;8306;51.128;4.476;2023-03-01T11:24:34;5.90;;;5.40;;
16393;SDS011;8306;51.128;4.476;2023-03-01T11:27:26;6.40;;;5.90;;
16393;SDS011;8306;51.128;4.476;2023-03-01T11:32:47;4.93;;;4.63;;
16393;SDS011;8306;51.128;4.476;2023-03-01T11:35:30;5.80;;;5.30;;
16393;SDS011;8306;51.128;4.476;2023-03-01T11:38:03;5.63;;;5.13;;
16393;SDS011;8306;51.128;4.476;2023-03-01T11:40:48;5.43;;;5.03;;
16393;SDS011;8306;51.128;4.476;2023-03-01T11:43:19;5.43;;;5.00;;
16393;SDS011;8306;51.128;4.476;2023-03-01T11:48:27;5.40;;;5.00;;
16393;SDS011;8306;51.128;4.476;2023-03-01T11:51:02;5.77;;;5.37;;
16393;SDS011;8306;51.128;4.476;2023-03-01T12:14:44;5.20;;;4.87;;
16393;SDS011;8306;51.128;4.476;2023-03-01T12:22:52;5.60;;;5.10;;
16393;SDS011;8306;51.128;4.476;2023-03-01T12:47:05;5.27;;;4.87;;
16393;SDS011;8306;51.128;4.476;2023-03-01T12:49:34;5.20;;;4.80;;
16393;SDS011;8306;51.128;4.476;2023-03-01T12:52:03;5.57;;;5.07;;
16393;SDS011;8306;51.128;4.476;2023-03-01T12:54:29;5.77;;;5.10;;
16393;SDS011;8306;51.128;4.476;2023-03-01T12:56:55;4.93;;;4.53;;
16393;SDS011;8306;51.128;4.476;2023-03-01T13:02:27;6.17;;;5.67;;
16393;SDS011;8306;51.128;4.476;2023-03-01T13:05:07;5.80;;;5.40;;
16393;SDS011;8306;51.128;4.476;2023-03-01T13:07:41;5.73;;;5.23;;
16393;SDS011;8306;51.128;4.476;2023-03-01T13:10:33;5.30;;;4.87;;
16393;SDS011;8306;51.128;4.476;2023-03-01T13:13:02;5.67;;;5.10;;
16393;SDS011;8306;51.128;4.476;2023-03-01T13:15:28;5.10;;;4.70;;
16393;SDS011;8306;51.128;4.476;2023-03-01T13:18:00;5.40;;;5.00;;
16393;SDS011;8306;51.128;4.476;2023-03-01T13:23:02;5.07;;;4.70;;
16393;SDS011;8306;51.128;4.476;2023-03-01T13:25:27;5.77;;;5.27;;
16393;SDS011;8306;51.128;4.476;2023-03-01T13:28:09;4.70;;;4.30;;
16393;SDS011;8306;51.128;4.476;2023-03-01T13:30:39;5.90;;;5.37;;
16393;SDS011;8306;51.128;4.476;2023-03-01T13:35:49;5.57;;;5.17;;
16393;SDS011;8306;51.128;4.476;2023-03-01T13:41:47;5.73;;;5.13;;
16393;SDS011;8306;51.128;4.476;2023-03-01T13:44:11;5.27;;;4.77;;
16393;SDS011;8306;51.128;4.476;2023-03-01T13:46:29;5.53;;;5.13;;
16393;SDS011;8306;51.128;4.476;2023-03-01T13:48:56;4.90;;;4.60;;
16393;SDS011;8306;51.128;4.476;2023-03-01T13:51:23;5.20;;;4.80;;
16393;SDS011;8306;51.128;4.476;2023-03-01T13:53:49;6.87;;;4.93;;
16393;SDS011;8306;51.128;4.476;2023-03-01T13:56:16;5.30;;;4.90;;
16393;SDS011;8306;51.128;4.476;2023-03-01T14:01:33;5.33;;;4.93;;
16393;SDS011;8306;51.128;4.476;2023-03-01T14:03:59;5.20;;;4.80;;
16393;SDS011;8306;51.128;4.476;2023-03-01T14:06:26;5.60;;;5.07;;
16393;SDS011;8306;51.128;4.476;2023-03-01T14:11:52;5.13;;;4.63;;
16393;SDS011;8306;51.128;4.476;2023-03-01T14:14:29;5.37;;;4.97;;
16393;SDS011;8306;51.128;4.476;2023-03-01T14:19:36;5.37;;;4.90;;
16393;SDS011;8306;51.128;4.476;2023-03-01T14:24:49;5.80;;;5.40;;
16393;SDS011;8306;51.128;4.476;2023-03-01T14:27:13;5.23;;;4.83;;
16393;SDS011;8306;51.128;4.476;2023-03-01T14:29:37;5.53;;;5.03;;
16393;SDS011;8306;51.128;4.476;2023-03-01T14:32:19;5.53;;;5.03;;
16393;SDS011;8306;51.128;4.476;2023-03-01T14:34:46;5.53;;;5.13;;
16393;SDS011;8306;51.128;4.476;2023-03-01T14:37:16;5.83;;;5.33;;
16393;SDS011;8306;51.128;4.476;2023-03-01T14:39:37;5.53;;;5.13;;
16393;SDS011;8306;51.128;4.476;2023-03-01T14:42:04;6.07;;;5.53;;
16393;SDS011;8306;51.128;4.476;2023-03-01T14:44:30;5.63;;;5.23;;
16393;SDS011;8306;51.128;4.476;2023-03-01T14:46:57;5.57;;;5.17;;
16393;SDS011;8306;51.128;4.476;2023-03-01T14:49:26;5.23;;;4.73;;
16393;SDS011;8306;51.128;4.476;2023-03-01T14:51:57;5.47;;;5.00;;
16393;SDS011;8306;51.128;4.476;2023-03-01T14:54:40;5.70;;;5.30;;
16393;SDS011;8306;51.128;4.476;2023-03-01T14:57:12;6.07;;;5.57;;
16393;SDS011;8306;51.128;4.476;2023-03-01T14:59:33;5.77;;;5.23;;
16393;SDS011;8306;51.128;4.476;2023-03-01T15:01:59;5.70;;;5.20;;
16393;SDS011;8306;51.128;4.476;2023-03-01T15:04:26;5.67;;;5.20;;
16393;SDS011;8306;51.128;4.476;2023-03-01T15:06:55;5.83;;;5.43;;
16393;SDS011;8306;51.128;4.476;2023-03-01T15:09:18;6.07;;;4.90;;
16393;SDS011;8306;51.128;4.476;2023-03-01T15:11:45;6.00;;;5.50;;
16393;SDS011;8306;51.128;4.476;2023-03-01T15:17:15;5.67;;;5.27;;
16393;SDS011;8306;51.128;4.476;2023-03-01T15:19:32;5.57;;;5.10;;
16393;SDS011;8306;51.128;4.476;2023-03-01T15:21:58;6.40;;;5.20;;
16393;SDS011;8306;51.128;4.476;2023-03-01T15:24:28;5.67;;;5.27;;
16393;SDS011;8306;51.128;4.476;2023-03-01T15:26:52;5.73;;;5.33;;
16393;SDS011;8306;51.128;4.476;2023-03-01T15:29:18;5.87;;;5.47;;
16393;SDS011;8306;51.128;4.476;2023-03-01T15:31:53;6.07;;;5.57;;
16393;SDS011;8306;51.128;4.476;2023-03-01T15:34:45;5.20;;;4.80;;
16393;SDS011;8306;51.128;4.476;2023-03-01T15:36:50;5.77;;;5.30;;
16393;SDS011;8306;51.128;4.476;2023-03-01T15:42:00;5.97;;;5.47;;
16393;SDS011;8306;51.128;4.476;2023-03-01T15:44:27;5.13;;;4.70;;
16393;SDS011;8306;51.128;4.476;2023-03-01T15:46:53;5.00;;;4.60;;
16393;SDS011;8306;51.128;4.476;2023-03-01T15:49:32;5.80;;;5.33;;
16393;SDS011;8306;51.128;4.476;2023-03-01T15:51:52;5.83;;;5.43;;
16393;SDS011;8306;51.128;4.476;2023-03-01T15:54:19;5.83;;;5.30;;
16393;SDS011;8306;51.128;4.476;2023-03-01T15:56:45;5.50;;;5.00;;
16393;SDS011;8306;51.128;4.476;2023-03-01T15:59:11;6.00;;;5.40;;
16393;SDS011;8306;51.128;4.476;2023-03-01T16:01:38;5.83;;;5.33;;
16393;SDS011;8306;51.128;4.476;2023-03-01T16:04:04;6.07;;;5.57;;
16393;SDS011;8306;51.128;4.476;2023-03-01T16:06:30;5.83;;;5.43;;
16393;SDS011;8306;51.128;4.476;2023-03-01T16:08:57;6.33;;;5.73;;
16393;SDS011;8306;51.128;4.476;2023-03-01T16:11:23;5.80;;;5.40;;
16393;SDS011;8306;51.128;4.476;2023-03-01T16:13:50;6.00;;;5.50;;
16393;SDS011;8306;51.128;4.476;2023-03-01T16:16:16;5.67;;;5.17;;
16393;SDS011;8306;51.128;4.476;2023-03-01T16:18:43;6.00;;;5.40;;
16393;SDS011;8306;51.128;4.476;2023-03-01T16:21:15;5.53;;;5.13;;
16393;SDS011;8306;51.128;4.476;2023-03-01T16:23:44;5.37;;;4.93;;
16393;SDS011;8306;51.128;4.476;2023-03-01T16:26:11;6.53;;;6.03;;
16393;SDS011;8306;51.128;4.476;2023-03-01T16:28:37;5.67;;;5.27;;
16393;SDS011;8306;51.128;4.476;2023-03-01T16:31:04;5.87;;;5.37;;
16393;SDS011;8306;51.128;4.476;2023-03-01T16:33:30;7.73;;;5.80;;
16393;SDS011;8306;51.128;4.476;2023-03-01T16:35:57;5.33;;;4.93;;
16393;SDS011;8306;51.128;4.476;2023-03-01T16:38:23;7.50;;;5.60;;
16393;SDS011;8306;51.128;4.476;2023-03-01T16:40:50;5.70;;;5.20;;
16393;SDS011;8306;51.128;4.476;2023-03-01T16:43:16;6.27;;;5.73;;
16393;SDS011;8306;51.128;4.476;2023-03-01T16:45:42;5.80;;;5.40;;
16393;SDS011;8306;51.128;4.476;2023-03-01T16:48:09;5.83;;;5.33;;
16393;SDS011;8306;51.128;4.476;2023-03-01T16:50:36;6.03;;;5.53;;
16393;SDS011;8306;51.128;4.476;2023-03-01T16:53:02;6.20;;;5.70;;
16393;SDS011;8306;51.128;4.476;2023-03-01T16:55:28;5.97;;;5.57;;